createdAt,value
2022-11-06T00:04:12.128Z,1.40
2022-11-06T00:14:15.478Z,1.40
2022-11-06T00:24:19.943Z,1.27
2022-11-06T00:34:22.979Z,1.10
2022-11-06T00:44:27.501Z,1.17
2022-11-06T00:54:30.641Z,1.10
2022-11-06T01:04:35.109Z,0.90
2022-11-06T01:14:40.449Z,1.10
2022-11-06T01:24:45.109Z,1.27
2022-11-06T01:34:50.451Z,1.07
2022-11-06T01:45:30.589Z,1.50
2022-11-06T01:55:39.130Z,1.43
2022-11-06T02:05:43.760Z,1.03
2022-11-06T02:15:51.187Z,1.07
2022-11-06T02:26:08.700Z,1.60
2022-11-06T02:36:17.563Z,1.17
2022-11-06T02:46:26.499Z,1.00
2022-11-06T02:56:36.769Z,1.00
2022-11-06T03:06:44.904Z,1.03
2022-11-06T03:16:55.887Z,0.90
2022-11-06T03:27:02.149Z,0.80
2022-11-06T03:37:12.354Z,0.80
2022-11-06T03:47:22.384Z,0.90
2022-11-06T03:57:35.526Z,1.00
2022-11-06T04:07:42.981Z,0.80
2022-11-06T04:17:47.325Z,0.70
2022-11-06T04:28:04.385Z,0.87
2022-11-06T04:38:14.358Z,0.90
2022-11-06T04:48:18.979Z,0.80
2022-11-06T04:58:23.402Z,0.60
2022-11-06T05:08:26.351Z,0.70
2022-11-06T05:18:30.626Z,0.80
2022-11-06T05:28:33.823Z,0.73
2022-11-06T05:38:38.101Z,1.07
2022-11-06T05:48:41.183Z,1.10
2022-11-06T05:58:45.585Z,0.80
2022-11-06T06:08:48.573Z,1.00
2022-11-06T06:18:52.941Z,0.93
2022-11-06T06:28:55.956Z,1.10
2022-11-06T06:39:00.361Z,0.93
2022-11-06T06:49:03.602Z,1.23
2022-11-06T06:59:07.923Z,1.33
2022-11-06T07:09:10.887Z,1.13
2022-11-06T07:19:15.593Z,1.57
2022-11-06T07:29:18.563Z,1.20
2022-11-06T07:39:22.774Z,1.10
2022-11-06T07:49:25.784Z,1.30
2022-11-06T07:59:29.897Z,1.00
2022-11-06T08:09:33.009Z,1.00
2022-11-06T08:19:37.592Z,1.40
2022-11-06T08:29:41.718Z,1.40
2022-11-06T08:39:46.288Z,1.40
2022-11-06T08:49:49.299Z,1.60
2022-11-06T08:59:53.740Z,1.60
2022-11-06T09:09:56.754Z,1.70
2022-11-06T09:20:01.130Z,1.80
2022-11-06T09:30:04.410Z,1.87
2022-11-06T09:40:17.017Z,2.00
2022-11-06T09:50:25.915Z,2.17
2022-11-06T10:00:30.655Z,2.33
2022-11-06T10:10:42.570Z,1.93
2022-11-06T10:20:53.428Z,2.40
2022-11-06T10:31:04.509Z,1.83
2022-11-06T10:41:16.549Z,2.40
2022-11-06T10:51:36.761Z,2.27
2022-11-06T11:01:41.564Z,1.70
2022-11-06T11:11:50.746Z,1.63
2022-11-06T11:21:57.594Z,1.83
2022-11-06T11:32:03.866Z,1.97
2022-11-06T11:42:27.367Z,1.70
2022-11-06T11:52:30.748Z,1.50
2022-11-06T12:02:41.950Z,1.60
2022-11-06T12:12:51.195Z,1.30
2022-11-06T12:22:57.242Z,0.93
2022-11-06T12:33:11.791Z,1.20
2022-11-06T12:43:23.597Z,0.97
2022-11-06T12:53:37.387Z,0.90
2022-11-06T13:04:11.421Z,1.57
2022-11-06T13:14:21.994Z,1.43
2022-11-06T13:24:32.875Z,0.70
2022-11-06T13:34:39.542Z,0.70
2022-11-06T13:44:44.038Z,0.83
2022-11-06T13:55:02.104Z,0.50
2022-11-06T14:05:45.362Z,0.60
2022-11-06T14:15:49.339Z,0.53
2022-11-06T14:26:02.982Z,0.63
2022-11-06T14:36:27.325Z,0.70
2022-11-06T14:46:33.047Z,0.70
2022-11-06T14:56:39.419Z,0.70
2022-11-06T15:06:46.170Z,0.73
2022-11-06T15:16:52.113Z,0.60
2022-11-06T15:27:00.673Z,0.80
2022-11-06T15:37:11.739Z,0.90
2022-11-06T15:47:24.380Z,1.00
2022-11-06T15:57:30.081Z,0.93
2022-11-06T16:07:34.500Z,1.10
2022-11-06T16:17:37.685Z,1.00
2022-11-06T16:27:42.116Z,1.63
2022-11-06T16:37:45.532Z,2.00
2022-11-06T16:48:32.668Z,1.60
2022-11-06T16:58:49.938Z,2.13
2022-11-06T17:09:09.377Z,2.23
2022-11-06T17:19:14.469Z,1.90
2022-11-06T17:29:21.946Z,2.17
2022-11-06T17:39:26.946Z,1.90
2022-11-06T17:49:29.956Z,2.27
2022-11-06T17:59:35.153Z,2.40
2022-11-06T18:09:38.201Z,2.00
2022-11-06T18:19:42.351Z,1.40
2022-11-06T18:29:45.299Z,1.40
2022-11-06T18:39:49.747Z,0.80
2022-11-06T18:49:52.738Z,0.90
2022-11-06T18:59:57.011Z,0.93
2022-11-06T19:10:00.188Z,0.97
2022-11-06T19:20:06.730Z,1.00
2022-11-06T19:30:11.627Z,1.33
2022-11-06T19:40:16.134Z,1.77
2022-11-06T19:50:28.783Z,1.20
2022-11-06T20:00:44.766Z,1.40
2022-11-06T20:10:47.557Z,1.30
2022-11-06T20:20:52.328Z,1.40
2022-11-06T20:30:55.325Z,1.33
2022-11-06T20:40:59.796Z,1.03
2022-11-06T20:51:05.302Z,1.33
2022-11-06T21:01:11.771Z,1.30
2022-11-06T21:11:16.895Z,1.80
2022-11-06T21:21:24.598Z,1.30
2022-11-06T21:31:29.005Z,1.17
2022-11-06T21:41:34.443Z,1.40
2022-11-06T21:51:37.689Z,0.90
2022-11-06T22:01:43.858Z,1.03
2022-11-06T22:11:46.936Z,0.90
2022-11-06T22:21:51.055Z,0.80
2022-11-06T22:31:54.153Z,1.00
2022-11-06T22:41:58.500Z,0.90
2022-11-06T22:52:01.840Z,0.70
2022-11-06T23:02:06.434Z,0.90
2022-11-06T23:12:09.667Z,0.67
2022-11-06T23:22:31.039Z,0.50
2022-11-06T23:32:36.300Z,0.50
2022-11-06T23:42:40.611Z,0.43
2022-11-06T23:52:43.630Z,0.60
